Time;durP1;ratioP1;P1;durP2;ratioP2;P2;SDS_P1;SDS_P2;PMS_P1;PMS_P2;Temp;Humidity;BMP_temperature;BMP_pressure;BME280_temperature;BME280_humidity;BME280_pressure;Samples;Min_cycle;Max_cycle;Signal;HPM_P1;HPM_P2
2023/12/23 00:02:05;;;;;;;4.60;1.30;;;;;;;1.82;76.32;95731.00;102803;1289;600265;-27
2023/12/23 00:12:14;;;;;;;2.40;1.00;;;;;;;1.74;78.53;95728.21;102816;1290;599946;-26
2023/12/23 00:14:42;;;;;;;1.70;1.00;;;;;;;1.76;77.84;95728.67;105006;1264;61174;-25
2023/12/23 00:17:09;;;;;;;5.00;1.40;;;;;;;1.64;78.25;95736.84;104925;1267;61113;-25
2023/12/23 00:19:37;;;;;;;2.30;1.00;;;;;;;1.42;78.89;95734.48;104857;1264;72278;-26
2023/12/23 00:22:05;;;;;;;3.70;1.50;;;;;;;1.17;80.28;95731.81;105117;1266;73136;-25
2023/12/23 00:32:13;;;;;;;1.40;1.10;;;;;;;1.71;78.51;95741.64;102760;1290;599965;-24
2023/12/23 00:34:42;;;;;;;5.30;1.60;;;;;;;1.45;79.22;95736.99;105066;1270;61164;-25
2023/12/23 00:37:10;;;;;;;3.40;1.40;;;;;;;1.26;79.80;95743.38;105019;1269;61069;-26
2023/12/23 00:39:39;;;;;;;1.80;1.00;;;;;;;1.47;79.98;95749.80;104940;1270;72167;-26
2023/12/23 00:42:07;;;;;;;1.40;0.90;;;;;;;1.97;77.92;95744.26;104840;1267;73323;-27
2023/12/23 00:44:35;;;;;;;1.70;1.20;;;;;;;1.95;77.22;95744.59;104783;1272;71505;-27
2023/12/23 00:47:03;;;;;;;2.10;1.20;;;;;;;1.76;77.64;95755.84;104506;1271;382281;-27
2023/12/23 00:49:31;;;;;;;6.10;1.60;;;;;;;1.58;78.00;95759.27;104804;1269;61221;-27
2023/12/23 00:52:00;;;;;;;4.00;1.30;;;;;;;1.38;78.98;95758.80;104817;1265;70962;-27
2023/12/23 00:54:28;;;;;;;4.10;1.20;;;;;;;1.25;79.67;95762.43;104728;1264;74232;-27
2023/12/23 00:56:56;;;;;;;3.10;1.00;;;;;;;1.64;78.63;95748.94;104830;1266;72735;-27
2023/12/23 00:59:24;;;;;;;1.60;1.00;;;;;;;1.92;77.46;95755.97;105065;1266;61116;-27
2023/12/23 01:01:51;;;;;;;4.30;1.10;;;;;;;1.88;77.03;95755.52;104940;1275;61176;-27
2023/12/23 01:04:19;;;;;;;4.30;2.10;;;;;;;1.68;77.36;95754.21;104988;1266;73067;-27
2023/12/23 01:06:47;;;;;;;2.70;1.50;;;;;;;1.47;77.49;95746.98;105095;1266;73889;-27
2023/12/23 01:16:51;;;;;;;2.20;1.30;;;;;;;1.93;75.07;95745.33;102715;1293;599970;-27
2023/12/23 01:19:19;;;;;;;4.20;1.50;;;;;;;1.79;75.00;95743.57;104862;1266;61084;-27
2023/12/23 01:21:47;;;;;;;2.60;1.10;;;;;;;1.53;75.79;95738.80;104842;1270;61149;-27
2023/12/23 01:32:00;;;;;;;2.50;1.20;;;;;;;1.88;74.73;95729.89;103075;1289;599114;-28
2023/12/23 01:34:28;;;;;;;2.60;1.10;;;;;;;1.91;74.63;95744.18;104980;1269;61177;-30
2023/12/23 01:44:32;;;;;;;3.10;1.00;;;;;;;1.17;77.52;95746.12;102776;1290;599973;-26
2023/12/23 01:47:00;;;;;;;1.70;1.00;;;;;;;1.53;76.92;95748.30;105002;1264;61123;-28
2023/12/23 01:49:27;;;;;;;2.00;1.20;;;;;;;1.81;75.10;95746.29;104858;1266;61190;-27
2023/12/23 01:59:33;;;;;;;3.40;1.20;;;;;;;1.26;76.96;95743.62;102670;1294;599379;-29
2023/12/23 02:09:37;;;;;;;3.20;1.20;;;;;;;1.71;75.75;95740.77;102709;1293;600178;-24
2023/12/23 02:12:23;;;;;;;2.80;1.50;;;;;;;1.45;76.12;95740.05;104821;1266;61177;-27
2023/12/23 02:21:10;;;;;;;1.80;1.20;;;;;;;1.58;76.30;95737.38;102716;1292;600173;-24
2023/12/23 02:23:37;;;;;;;3.00;1.60;;;;;;;1.82;74.74;95742.40;105063;1267;61281;-24
2023/12/23 02:26:05;;;;;;;1.90;1.00;;;;;;;1.72;74.48;95733.95;104811;1269;61171;-26
2023/12/23 02:28:32;;;;;;;5.10;1.70;;;;;;;1.50;74.64;95731.49;104735;1266;70998;-27
2023/12/23 02:31:00;;;;;;;4.10;1.20;;;;;;;1.28;75.14;95734.16;104796;1270;74473;-27
2023/12/23 02:33:28;;;;;;;3.20;1.10;;;;;;;1.07;75.77;95734.27;104757;1266;71415;-27
2023/12/23 02:35:56;;;;;;;3.50;1.40;;;;;;;0.95;76.03;95739.86;104669;1268;303411;-27
2023/12/23 02:38:24;;;;;;;2.10;0.80;;;;;;;1.25;75.92;95734.80;105213;1266;61158;-27
2023/12/23 02:48:29;;;;;;;1.90;0.80;;;;;;;1.42;74.78;95736.55;103045;1289;600085;-26
2023/12/23 02:50:58;;;;;;;3.50;1.20;;;;;;;1.15;75.60;95751.80;104875;1267;62576;-27
2023/12/23 03:01:07;;;;;;;2.20;1.10;;;;;;;1.71;73.26;95747.23;102682;1292;599229;-24
2023/12/23 03:03:36;;;;;;;1.00;0.80;;;;;;;1.41;73.19;95747.13;104893;1267;61004;-26
2023/12/23 03:06:03;;;;;;;3.00;0.80;;;;;;;1.16;73.65;95753.58;104911;1266;61124;-27
2023/12/23 03:16:17;;;;;;;1.80;1.20;;;;;;;1.35;73.69;95756.61;103733;1285;599450;-24
2023/12/23 03:18:45;;;;;;;3.40;1.30;;;;;;;1.59;72.22;95759.02;104877;1264;61085;-27
2023/12/23 03:21:13;;;;;;;3.10;0.90;;;;;;;1.40;71.93;95756.38;104843;1266;61177;-26
2023/12/23 03:23:41;;;;;;;3.70;1.20;;;;;;;1.30;72.15;95757.54;104867;1270;71690;-26
2023/12/23 03:26:09;;;;;;;2.20;1.10;;;;;;;1.12;72.45;95754.17;108748;1264;73232;-27
2023/12/23 03:28:37;;;;;;;2.70;1.40;;;;;;;0.95;72.81;95749.12;108576;1264;146776;-27
2023/12/23 03:31:04;;;;;;;5.30;1.40;;;;;;;0.80;73.25;95753.70;108893;1260;59326;-27
2023/12/23 03:33:32;;;;;;;4.20;1.00;;;;;;;0.97;73.43;95756.54;109063;1259;60136;-28
2023/12/23 03:35:59;;;;;;;1.50;0.90;;;;;;;1.38;71.19;95747.89;109038;1260;72278;-27
2023/12/23 03:38:27;;;;;;;4.90;0.90;;;;;;;1.57;70.08;95748.59;108999;1259;74338;-27
2023/12/23 03:40:54;;;;;;;3.10;1.40;;;;;;;1.47;69.96;95752.20;108998;1259;71258;-27
2023/12/23 03:43:22;;;;;;;2.90;1.40;;;;;;;1.25;70.37;95759.04;108989;1260;58733;-27
2023/12/23 03:45:50;;;;;;;3.50;1.10;;;;;;;1.16;70.74;95760.75;108996;1259;60027;-27
2023/12/23 03:48:17;;;;;;;2.80;1.50;;;;;;;1.06;70.99;95764.82;108945;1259;71802;-27
2023/12/23 03:50:45;;;;;;;1.70;1.10;;;;;;;0.92;71.16;95770.22;109040;1259;74391;-27
2023/12/23 03:53:14;;;;;;;2.80;1.20;;;;;;;0.80;71.72;95772.67;108997;1260;72651;-27
2023/12/23 03:55:41;;;;;;;2.40;1.10;;;;;;;1.23;70.99;95772.93;108892;1259;58771;-27
2023/12/23 03:58:09;;;;;;;1.40;0.90;;;;;;;1.51;69.40;95769.39;108976;1259;60262;-27
2023/12/23 04:00:36;;;;;;;3.30;0.90;;;;;;;1.63;69.28;95779.70;108964;1260;71093;-27
2023/12/23 04:03:04;;;;;;;6.40;1.30;;;;;;;1.50;68.97;95771.20;109041;1259;74313;-28
2023/12/23 04:05:31;;;;;;;9.90;2.40;;;;;;;1.34;69.35;95783.00;109007;1259;71828;-27
2023/12/23 04:07:59;;;;;;;2.50;1.50;;;;;;;1.23;69.88;95786.05;108976;1259;59291;-27
2023/12/23 04:10:26;;;;;;;6.80;1.60;;;;;;;1.05;70.39;95788.23;108977;1260;60002;-27
2023/12/23 04:12:54;;;;;;;6.50;2.30;;;;;;;0.93;70.90;95790.96;108991;1258;73121;-28
2023/12/23 04:15:21;;;;;;;5.80;1.30;;;;;;;0.75;71.64;95792.42;108966;1261;74315;-27
2023/12/23 04:17:49;;;;;;;2.70;1.20;;;;;;;0.98;71.28;95789.27;108985;1259;72667;-27
2023/12/23 04:20:16;;;;;;;3.30;1.30;;;;;;;1.53;68.90;95788.86;109007;1260;60054;-27
2023/12/23 04:22:47;;;;;;;5.80;1.70;;;;;;;1.71;67.81;95788.02;108977;1259;60001;-27
2023/12/23 04:25:15;;;;;;;2.50;1.20;;;;;;;1.57;67.59;95789.63;108982;1259;71805;-27
2023/12/23 04:27:47;;;;;;;3.40;1.00;;;;;;;1.41;68.10;95795.79;109006;1259;73261;-27
2023/12/23 04:30:15;;;;;;;4.80;1.10;;;;;;;1.17;68.83;95789.59;108937;1260;72660;-27
2023/12/23 04:32:43;;;;;;;6.70;2.50;;;;;;;0.99;69.02;95800.59;108967;1259;59278;-27
2023/12/23 04:35:10;;;;;;;2.20;1.00;;;;;;;0.89;69.58;95808.37;108989;1260;59947;-27
2023/12/23 04:37:41;;;;;;;3.70;1.10;;;;;;;0.84;69.85;95810.42;108993;1259;72048;-27
2023/12/23 04:40:10;;;;;;;4.80;2.30;;;;;;;0.71;69.73;95811.55;108841;1260;73525;-27
2023/12/23 04:42:39;;;;;;;1.70;0.80;;;;;;;0.81;70.06;95818.66;108852;1263;72645;-27
2023/12/23 04:45:09;;;;;;;4.40;1.50;;;;;;;1.42;68.38;95822.70;108953;1259;59264;-27
2023/12/23 04:47:37;;;;;;;5.30;1.70;;;;;;;1.55;67.60;95828.80;108841;1260;60215;-27
2023/12/23 04:50:05;;;;;;;2.40;1.40;;;;;;;1.46;67.41;95824.58;108851;1260;73075;-27
2023/12/23 04:52:33;;;;;;;2.40;1.00;;;;;;;1.28;67.62;95822.70;108855;1259;74285;-28
2023/12/23 04:55:04;;;;;;;3.60;1.40;;;;;;;1.14;68.25;95823.85;108913;1259;71113;-27
2023/12/23 04:57:33;;;;;;;2.20;0.80;;;;;;;1.06;68.62;95829.86;108966;1259;59360;-27
2023/12/23 05:00:00;;;;;;;2.90;1.30;;;;;;;0.87;69.58;95836.02;108994;1260;59981;-27
2023/12/23 05:02:28;;;;;;;3.70;1.40;;;;;;;0.73;69.54;95837.38;108925;1259;73003;-27
2023/12/23 05:04:56;;;;;;;2.00;1.00;;;;;;;0.64;70.36;95844.52;108929;1259;74286;-28
2023/12/23 05:07:24;;;;;;;9.20;1.30;;;;;;;0.64;70.70;95846.14;108966;1261;72693;-27
2023/12/23 05:09:51;;;;;;;0.90;0.80;;;;;;;1.26;69.10;95852.12;108952;1260;59303;-27
2023/12/23 05:12:22;;;;;;;7.30;1.20;;;;;;;1.43;67.93;95848.44;108928;1259;58752;-27
2023/12/23 05:14:50;;;;;;;4.40;1.30;;;;;;;1.32;68.39;95844.79;108936;1261;71765;-27
2023/12/23 05:17:17;;;;;;;3.60;1.50;;;;;;;1.11;69.16;95845.66;108926;1259;73049;-27
2023/12/23 05:19:47;;;;;;;5.80;1.80;;;;;;;1.06;69.71;95852.27;108898;1259;71305;-27
2023/12/23 05:22:14;;;;;;;4.60;1.40;;;;;;;0.88;70.45;95861.77;108957;1260;59271;-27
2023/12/23 05:24:42;;;;;;;4.30;1.20;;;;;;;0.75;71.12;95861.61;108947;1260;59977;-27
2023/12/23 05:27:11;;;;;;;2.20;1.30;;;;;;;0.53;72.03;95860.67;108938;1260;70891;-27
2023/12/23 05:29:39;;;;;;;2.60;0.90;;;;;;;0.47;72.66;95868.41;108996;1259;76351;-27
2023/12/23 05:32:06;;;;;;;5.50;1.50;;;;;;;0.93;71.58;95869.36;108985;1260;72690;-27
2023/12/23 05:34:34;;;;;;;3.60;1.40;;;;;;;1.34;70.05;95880.20;108966;1260;60056;-28
2023/12/23 05:37:02;;;;;;;2.40;1.30;;;;;;;1.41;69.84;95881.43;108924;1260;58802;-28
2023/12/23 05:39:30;;;;;;;4.60;1.80;;;;;;;1.35;69.69;95882.67;108982;1265;73079;-27
2023/12/23 05:41:58;;;;;;;3.60;1.10;;;;;;;1.05;70.48;95880.68;108888;1260;74829;-27
2023/12/23 05:44:25;;;;;;;3.30;1.20;;;;;;;0.86;71.08;95882.14;108837;1264;72671;-28
2023/12/23 05:46:53;;;;;;;3.30;1.10;;;;;;;0.80;71.54;95880.27;108971;1260;58838;-27
2023/12/23 05:49:20;;;;;;;1.90;0.90;;;;;;;0.62;72.08;95883.60;108901;1260;59987;-27
2023/12/23 05:51:54;;;;;;;2.80;1.10;;;;;;;0.51;72.95;95895.88;108969;1260;71803;-27
2023/12/23 05:54:21;;;;;;;0.50;0.50;;;;;;;1.02;71.57;95896.89;108981;1260;74374;-27
2023/12/23 05:56:49;;;;;;;3.30;1.20;;;;;;;1.40;70.13;95908.02;108852;1260;72634;-27
2023/12/23 05:59:16;;;;;;;2.50;1.40;;;;;;;1.25;69.77;95901.70;108976;1260;58818;-27
2023/12/23 06:01:44;;;;;;;15.50;2.50;;;;;;;1.08;70.27;95900.77;108994;1260;58818;-27
2023/12/23 06:04:11;;;;;;;5.30;1.30;;;;;;;0.90;70.83;95911.07;108982;1260;73062;-27
2023/12/23 06:06:38;;;;;;;3.60;1.10;;;;;;;0.73;71.85;95917.77;108882;1266;74268;-27
2023/12/23 06:09:06;;;;;;;1.90;1.40;;;;;;;0.63;72.50;95917.36;108883;1260;72777;-27
2023/12/23 06:11:34;;;;;;;3.00;0.90;;;;;;;0.48;73.38;95923.65;108946;1262;59402;-28
2023/12/23 06:14:02;;;;;;;5.10;1.30;;;;;;;0.46;74.11;95920.52;108960;1260;58775;-27
2023/12/23 06:16:30;;;;;;;3.10;1.20;;;;;;;1.04;72.91;95931.57;108979;1260;73011;-27
2023/12/23 06:18:57;;;;;;;4.80;1.40;;;;;;;1.18;72.19;95932.44;108882;1261;74303;-27
2023/12/23 06:21:25;;;;;;;1.30;0.90;;;;;;;1.06;73.20;95937.45;108959;1260;71465;-27
2023/12/23 06:23:52;;;;;;;5.60;2.80;;;;;;;0.86;74.08;95942.89;108863;1260;58867;-27
2023/12/23 06:26:20;;;;;;;3.50;1.20;;;;;;;0.79;74.86;95952.22;108904;1260;59288;-27
2023/12/23 06:28:48;;;;;;;4.20;1.30;;;;;;;0.66;75.10;95948.58;108967;1260;73031;-27
2023/12/23 06:31:15;;;;;;;3.40;1.20;;;;;;;0.56;75.52;95956.50;108981;1260;74317;-27
2023/12/23 06:33:42;;;;;;;3.50;1.40;;;;;;;0.67;75.92;95957.27;108919;1260;71401;-27
2023/12/23 06:36:10;;;;;;;2.50;0.90;;;;;;;1.30;74.32;95957.30;108961;1260;60052;-27
2023/12/23 06:38:38;;;;;;;3.50;1.30;;;;;;;1.59;72.93;95957.25;108957;1260;60026;-27
2023/12/23 06:41:05;;;;;;;3.20;1.10;;;;;;;1.39;73.27;95958.08;108963;1260;73089;-27
2023/12/23 06:43:32;;;;;;;3.70;1.20;;;;;;;1.26;73.72;95959.93;109115;1256;74293;-27
2023/12/23 06:46:18;;;;;;;2.80;1.30;;;;;;;1.01;74.56;95962.57;109124;1260;72670;-27
2023/12/23 06:48:45;;;;;;;5.00;1.00;;;;;;;0.90;74.88;95958.41;109112;1257;59217;-27
2023/12/23 06:51:13;;;;;;;2.10;1.30;;;;;;;0.72;75.81;95965.19;109186;1257;60000;-28
2023/12/23 06:53:41;;;;;;;3.40;1.30;;;;;;;0.62;76.54;95965.59;109141;1259;73018;-28
2023/12/23 06:56:08;;;;;;;5.20;1.20;;;;;;;1.12;75.42;95965.65;109148;1256;73017;-27
2023/12/23 06:58:36;;;;;;;4.50;1.90;;;;;;;1.54;73.80;95971.67;109116;1256;72696;-27
2023/12/23 07:01:04;;;;;;;3.40;0.90;;;;;;;1.46;73.84;95973.15;109104;1256;58890;-27
2023/12/23 07:03:32;;;;;;;2.70;0.90;;;;;;;1.34;74.31;95978.70;109198;1256;58742;-27
2023/12/23 07:05:59;;;;;;;3.60;1.10;;;;;;;1.13;74.77;95979.21;109165;1256;71789;-27
2023/12/23 07:08:27;;;;;;;1.60;1.00;;;;;;;0.83;75.87;95980.26;109150;1256;74283;-27
2023/12/23 07:10:54;;;;;;;13.00;1.90;;;;;;;0.71;76.34;95976.15;109157;1256;71744;-27
2023/12/23 07:13:22;;;;;;;1.30;0.90;;;;;;;0.56;77.26;95986.08;109118;1257;59678;-27
2023/12/23 07:15:49;;;;;;;3.20;1.10;;;;;;;1.05;76.00;95979.27;109162;1256;58743;-27
2023/12/23 07:18:17;;;;;;;6.10;2.00;;;;;;;1.48;73.95;95979.11;109098;1256;73019;-28
2023/12/23 07:20:46;;;;;;;1.70;0.90;;;;;;;1.45;73.15;95979.69;109135;1257;74281;-27
2023/12/23 07:23:14;;;;;;;4.40;1.00;;;;;;;1.41;73.64;95990.31;109124;1256;72643;-27
2023/12/23 07:25:41;;;;;;;3.80;0.90;;;;;;;1.22;74.01;95988.52;109120;1257;58860;-27
2023/12/23 07:28:09;;;;;;;2.80;1.40;;;;;;;1.06;74.53;95995.59;109147;1260;58701;-27
2023/12/23 07:30:44;;;;;;;5.50;1.30;;;;;;;0.81;75.60;96005.86;109175;1256;73869;-27
2023/12/23 07:33:12;;;;;;;1.90;1.10;;;;;;;0.85;75.75;96002.10;109129;1256;74319;-27
2023/12/23 07:35:40;;;;;;;2.20;1.40;;;;;;;1.23;74.35;96004.79;109019;1256;71968;-27
2023/12/23 07:38:07;;;;;;;6.90;1.90;;;;;;;1.28;74.08;95999.42;109111;1256;60016;-27
2023/12/23 07:40:35;;;;;;;4.50;1.20;;;;;;;1.20;74.41;96003.56;109119;1258;60257;-27
2023/12/23 07:43:03;;;;;;;3.70;1.30;;;;;;;1.08;74.75;96004.01;109061;1259;73811;-27
2023/12/23 07:45:31;;;;;;;2.70;1.20;;;;;;;1.00;75.31;96008.62;109086;1259;74283;-27
2023/12/23 07:47:58;;;;;;;3.30;1.40;;;;;;;0.84;75.95;96010.02;109045;1259;72756;-27
2023/12/23 07:50:26;;;;;;;2.00;1.10;;;;;;;0.70;76.95;96015.55;109062;1258;59286;-27
2023/12/23 07:52:54;;;;;;;3.20;0.90;;;;;;;1.02;76.23;96019.15;109000;1259;58812;-27
2023/12/23 07:55:22;;;;;;;3.90;1.30;;;;;;;1.46;74.52;96017.28;109071;1260;73034;-27
2023/12/23 07:57:49;;;;;;;4.80;1.20;;;;;;;1.48;73.76;96026.62;109080;1260;74276;-28
2023/12/23 08:00:17;;;;;;;4.60;1.50;;;;;;;1.39;73.84;96022.19;108967;1261;71500;-27
2023/12/23 08:02:44;;;;;;;2.50;1.10;;;;;;;1.11;74.58;96020.64;109002;1258;58893;-27
2023/12/23 08:05:12;;;;;;;4.30;1.30;;;;;;;1.03;74.63;96024.04;108994;1257;60068;-27
2023/12/23 08:07:43;;;;;;;2.30;1.10;;;;;;;0.85;75.81;96028.88;109010;1258;72604;-27
2023/12/23 08:10:11;;;;;;;1.50;1.00;;;;;;;0.77;76.20;96035.77;109073;1257;74315;-27
2023/12/23 08:12:39;;;;;;;3.00;1.30;;;;;;;1.12;75.52;96031.23;109093;1260;71464;-27
2023/12/23 08:15:07;;;;;;;4.20;1.30;;;;;;;1.49;73.90;96034.03;109003;1259;60007;-27
2023/12/23 08:17:35;;;;;;;2.40;1.10;;;;;;;1.58;73.90;96039.17;108947;1257;60010;-27
2023/12/23 08:20:04;;;;;;;2.80;1.30;;;;;;;1.40;74.16;96038.64;109072;1257;73859;-27
2023/12/23 08:22:32;;;;;;;2.60;1.10;;;;;;;1.13;75.59;96044.87;109079;1257;74287;-27
2023/12/23 08:25:00;;;;;;;4.60;1.30;;;;;;;0.98;76.23;96046.77;108986;1257;71385;-27
2023/12/23 08:27:27;;;;;;;1.80;1.00;;;;;;;0.87;77.28;96052.84;109075;1259;59194;-27
2023/12/23 08:29:55;;;;;;;3.70;1.30;;;;;;;1.00;76.60;96048.21;109071;1257;58838;-27
2023/12/23 08:32:23;;;;;;;1.50;0.80;;;;;;;1.53;74.52;96053.48;109069;1257;73839;-27
2023/12/23 08:34:50;;;;;;;3.10;1.20;;;;;;;1.70;73.84;96066.77;109066;1258;74266;-27
2023/12/23 08:37:20;;;;;;;4.60;1.80;;;;;;;1.47;73.05;96057.88;108978;1260;72720;-27
2023/12/23 08:39:47;;;;;;;2.60;1.60;;;;;;;1.30;73.32;96062.33;109023;1260;58926;-27
2023/12/23 08:42:15;;;;;;;1.60;0.80;;;;;;;1.26;73.34;96066.60;108974;1260;58733;-27
2023/12/23 08:44:42;;;;;;;2.70;1.60;;;;;;;1.16;73.24;96060.66;108987;1259;73858;-27
2023/12/23 08:47:10;;;;;;;2.30;1.40;;;;;;;1.08;73.33;96064.25;109012;1259;74308;-27
2023/12/23 08:49:38;;;;;;;2.20;1.30;;;;;;;1.05;73.02;96056.77;108963;1260;72633;-27
2023/12/23 08:52:06;;;;;;;6.90;1.60;;;;;;;1.50;71.78;96059.65;108928;1260;59712;-27
2023/12/23 08:54:34;;;;;;;4.60;1.10;;;;;;;1.62;70.17;96059.92;108990;1259;58745;-27
2023/12/23 08:57:02;;;;;;;2.60;1.00;;;;;;;1.58;70.26;96064.69;108930;1259;73832;-27
2023/12/23 08:59:29;;;;;;;2.40;1.30;;;;;;;1.38;69.59;96059.56;108979;1260;74345;-27
2023/12/23 09:02:01;;;;;;;8.30;2.20;;;;;;;1.32;70.29;96063.50;109015;1262;72611;-27
2023/12/23 09:04:29;;;;;;;5.80;1.80;;;;;;;1.18;69.35;96056.32;108931;1258;59269;-28
2023/12/23 09:06:58;;;;;;;3.60;1.70;;;;;;;0.94;69.25;96064.79;109030;1258;58797;-27
2023/12/23 09:09:25;;;;;;;3.30;1.90;;;;;;;0.92;68.73;96053.77;108977;1259;71694;-27
2023/12/23 09:11:53;;;;;;;2.90;1.50;;;;;;;0.88;69.60;96065.16;108938;1261;74372;-27
2023/12/23 09:14:21;;;;;;;4.40;2.10;;;;;;;0.90;69.49;96065.90;109011;1260;71531;-27
2023/12/23 09:16:48;;;;;;;5.10;1.90;;;;;;;1.03;68.84;96046.63;108997;1259;59226;-27
2023/12/23 09:19:16;;;;;;;3.30;1.50;;;;;;;1.44;67.64;96072.44;108960;1259;58742;-28
2023/12/23 09:21:44;;;;;;;2.20;1.30;;;;;;;1.58;67.02;96066.23;108970;1259;73978;-28
2023/12/23 09:24:12;;;;;;;8.30;2.90;;;;;;;1.36;66.48;96044.99;108975;1263;74322;-27
2023/12/23 09:26:41;;;;;;;4.60;2.00;;;;;;;1.29;66.82;96047.00;109017;1260;72644;-28
2023/12/23 09:29:09;;;;;;;4.00;1.50;;;;;;;0.93;66.11;96032.08;108952;1260;58848;-27
2023/12/23 09:31:36;;;;;;;2.50;1.30;;;;;;;0.91;66.91;96054.30;109051;1260;59971;-28
2023/12/23 09:34:04;;;;;;;2.20;1.40;;;;;;;0.93;67.40;96062.81;108972;1259;72595;-27
2023/12/23 09:36:31;;;;;;;2.40;1.30;;;;;;;0.89;67.30;96056.61;108977;1260;72534;-27
2023/12/23 09:39:00;;;;;;;2.80;1.70;;;;;;;0.78;68.09;96052.92;108960;1259;71453;-28
2023/12/23 09:41:32;;;;;;;3.80;1.40;;;;;;;0.79;68.67;96054.59;108845;1260;58795;-27
2023/12/23 09:44:02;;;;;;;5.00;1.60;;;;;;;0.71;67.34;96045.83;108841;1260;58755;-28
2023/12/23 09:46:32;;;;;;;2.90;1.50;;;;;;;0.68;67.95;96053.67;108936;1259;73871;-28
2023/12/23 09:49:02;;;;;;;6.40;2.20;;;;;;;0.63;67.71;96045.20;108945;1259;74458;-28
2023/12/23 09:51:35;;;;;;;1.80;1.20;;;;;;;0.52;67.83;96044.33;108958;1260;71710;-27
2023/12/23 09:54:08;;;;;;;3.10;1.50;;;;;;;0.81;67.56;96052.98;108909;1260;59276;-28
2023/12/23 09:56:38;;;;;;;2.50;1.60;;;;;;;1.12;65.96;96064.78;108939;1259;60031;-29
2023/12/23 09:59:07;;;;;;;2.50;1.00;;;;;;;1.36;65.22;96069.60;108950;1260;72641;-28
2023/12/23 10:01:37;;;;;;;4.20;1.40;;;;;;;1.27;65.61;96076.55;108946;1259;74794;-28
2023/12/23 10:04:07;;;;;;;5.20;1.80;;;;;;;1.15;65.97;96060.52;108811;1260;72642;-28
2023/12/23 10:06:36;;;;;;;2.20;1.50;;;;;;;0.98;66.41;96069.74;108883;1260;59759;-27
2023/12/23 10:09:10;;;;;;;5.80;2.10;;;;;;;0.71;66.86;96074.34;108899;1260;60009;-28
2023/12/23 10:11:41;;;;;;;2.40;1.40;;;;;;;0.79;67.57;96088.20;108970;1260;73918;-28
2023/12/23 10:14:12;;;;;;;4.80;1.90;;;;;;;0.78;66.81;96067.91;108874;1260;74312;-28
2023/12/23 10:16:41;;;;;;;2.80;1.50;;;;;;;0.66;67.28;96088.95;108919;1260;72678;-28
2023/12/23 10:19:15;;;;;;;2.60;1.40;;;;;;;0.76;67.71;96074.77;108893;1259;58866;-28
2023/12/23 10:21:45;;;;;;;5.00;1.90;;;;;;;0.70;67.56;96076.83;108918;1260;60035;-28
2023/12/23 10:24:17;;;;;;;3.40;1.20;;;;;;;0.74;67.59;96070.48;108931;1260;73928;-28
2023/12/23 10:26:46;;;;;;;4.20;1.50;;;;;;;0.69;67.13;96064.13;108906;1260;73057;-27
2023/12/23 10:29:16;;;;;;;3.20;1.40;;;;;;;0.71;67.01;96061.77;108949;1260;71721;-27
2023/12/23 10:31:51;;;;;;;7.10;2.40;;;;;;;0.71;67.15;96055.23;108857;1260;59308;-28
2023/12/23 10:34:22;;;;;;;5.60;1.50;;;;;;;0.70;67.01;96064.51;108880;1260;58797;-28
2023/12/23 10:36:54;;;;;;;3.20;1.30;;;;;;;0.61;67.00;96053.89;108904;1259;73635;-28
2023/12/23 10:46:59;;;;;;;3.10;1.50;;;;;;;0.37;67.76;96072.77;102647;1293;602372;-27
2023/12/23 10:49:27;;;;;;;2.80;1.20;;;;;;;0.27;67.77;96070.90;104788;1267;61172;-27
2023/12/23 10:51:55;;;;;;;3.00;1.20;;;;;;;0.23;67.73;96061.15;104891;1270;61216;-27
2023/12/23 10:54:24;;;;;;;1.20;0.80;;;;;;;0.76;66.75;96077.38;105028;1269;72239;-27
2023/12/23 10:56:52;;;;;;;6.80;1.30;;;;;;;1.01;65.93;96070.04;105175;1267;73038;-28
2023/12/23 10:59:20;;;;;;;2.40;1.20;;;;;;;0.90;66.01;96077.34;105053;1270;71761;-28
2023/12/23 11:01:48;;;;;;;2.80;1.10;;;;;;;0.87;66.15;96083.73;105208;1264;140982;-27
2023/12/23 11:04:16;;;;;;;4.60;1.80;;;;;;;0.83;67.20;96092.77;105209;1261;61161;-27
2023/12/23 11:06:44;;;;;;;10.10;1.90;;;;;;;0.80;67.12;96094.54;105198;1264;72183;-27
2023/12/23 11:09:11;;;;;;;5.70;1.80;;;;;;;0.68;67.65;96095.99;105232;1267;73192;-28
2023/12/23 11:11:39;;;;;;;3.40;1.50;;;;;;;0.48;68.05;96094.16;105178;1260;71462;-28
2023/12/23 11:14:07;;;;;;;4.10;1.30;;;;;;;0.40;67.83;96096.05;105270;1260;61186;-28
2023/12/23 11:16:38;;;;;;;2.50;1.30;;;;;;;0.60;68.19;96102.33;105149;1263;61130;-27
2023/12/23 11:19:06;;;;;;;3.90;1.50;;;;;;;1.00;66.43;96099.83;105164;1265;71804;-27
2023/12/23 11:21:35;;;;;;;2.90;1.30;;;;;;;1.14;65.45;96093.48;105170;1260;74349;-27
2023/12/23 11:24:05;;;;;;;3.40;1.50;;;;;;;1.13;65.56;96092.86;105221;1261;70646;-27
2023/12/23 11:26:37;;;;;;;3.30;1.30;;;;;;;0.91;65.87;96095.19;105146;1259;61248;-27
2023/12/23 11:29:06;;;;;;;2.40;1.70;;;;;;;0.80;66.41;96082.48;104971;1260;61048;-28
2023/12/23 11:31:33;;;;;;;6.80;1.80;;;;;;;0.76;66.54;96101.06;105143;1266;73045;-28
2023/12/23 11:34:01;;;;;;;3.30;1.70;;;;;;;0.64;67.00;96088.83;105153;1267;74275;-28
2023/12/23 11:36:29;;;;;;;3.20;1.70;;;;;;;0.58;67.52;96099.80;105195;1266;71989;-27
2023/12/23 11:38:57;;;;;;;3.80;1.70;;;;;;;0.56;68.20;96114.30;105037;1268;61098;-28
2023/12/23 11:41:24;;;;;;;3.70;1.40;;;;;;;0.59;66.99;96082.58;104961;1262;61176;-28
2023/12/23 11:43:52;;;;;;;2.20;1.40;;;;;;;1.06;65.85;96100.52;104905;1263;73043;-27
2023/12/23 11:46:22;;;;;;;2.90;1.40;;;;;;;1.07;65.56;96099.02;105054;1264;74570;-28
2023/12/23 11:48:50;;;;;;;6.60;2.70;;;;;;;0.97;65.38;96107.05;105179;1267;72682;-27
2023/12/23 11:58:54;;;;;;;2.20;1.30;;;;;;;0.58;67.65;96114.79;102864;1291;600256;-27
2023/12/23 12:01:24;;;;;;;5.10;1.90;;;;;;;0.51;67.45;96111.27;104768;1267;61090;-27
2023/12/23 12:03:52;;;;;;;3.20;1.30;;;;;;;0.44;67.64;96123.39;104847;1270;61168;-28
2023/12/23 12:06:19;;;;;;;2.80;1.20;;;;;;;0.40;68.25;96123.98;104835;1271;70962;-27
2023/12/23 12:08:47;;;;;;;3.60;1.30;;;;;;;0.67;67.44;96130.18;104769;1267;74408;-27
2023/12/23 12:11:16;;;;;;;3.40;1.30;;;;;;;0.99;65.70;96128.77;104734;1269;71456;-27
2023/12/23 12:13:47;;;;;;;1.80;1.30;;;;;;;1.08;65.11;96136.17;104807;1265;116116;-27
2023/12/23 12:16:15;;;;;;;3.20;1.50;;;;;;;1.01;64.81;96132.83;104792;1265;61512;-27
2023/12/23 12:26:19;;;;;;;1.80;1.30;;;;;;;0.68;66.71;96147.33;102653;1295;601546;-27
2023/12/23 12:28:47;;;;;;;2.80;1.30;;;;;;;0.58;67.11;96144.98;104776;1267;61181;-28
2023/12/23 12:39:00;;;;;;;1.70;1.00;;;;;;;1.07;65.44;96163.85;103444;1283;600346;-28
2023/12/23 12:41:29;;;;;;;2.10;1.20;;;;;;;1.10;65.11;96167.64;104887;1271;61180;-28
2023/12/23 12:43:56;;;;;;;2.50;1.10;;;;;;;0.85;65.40;96163.80;104830;1265;61077;-27
2023/12/23 12:54:00;;;;;;;2.20;1.00;;;;;;;0.55;67.74;96177.05;102686;1290;600002;-27
2023/12/23 12:56:27;;;;;;;3.30;1.80;;;;;;;0.43;68.56;96185.89;104869;1271;61155;-27
2023/12/23 12:58:56;;;;;;;1.60;1.10;;;;;;;0.31;69.08;96185.37;104876;1270;61202;-27
2023/12/23 13:01:24;;;;;;;3.20;1.20;;;;;;;0.56;68.55;96182.58;104822;1270;72316;-27
2023/12/23 13:03:52;;;;;;;3.50;1.10;;;;;;;0.91;67.60;96187.38;104770;1274;73564;-27
2023/12/23 13:06:20;;;;;;;1.40;1.00;;;;;;;0.72;67.78;96186.86;104765;1266;72711;-28
2023/12/23 13:08:48;;;;;;;4.50;1.30;;;;;;;0.65;68.81;96192.06;105054;1268;167021;-28
2023/12/23 13:18:54;;;;;;;3.20;1.20;;;;;;;0.04;72.28;96197.13;103021;1289;602217;-27
2023/12/23 13:21:28;;;;;;;3.90;1.10;;;;;;;0.51;70.41;96218.30;104834;1272;61189;-28
2023/12/23 13:23:56;;;;;;;4.20;1.30;;;;;;;0.56;69.37;96199.52;104836;1272;61165;-27
2023/12/23 13:26:23;;;;;;;7.10;1.50;;;;;;;0.40;69.33;96211.73;104843;1272;71073;-27
2023/12/23 13:28:51;;;;;;;2.00;1.20;;;;;;;0.19;69.97;96219.80;104855;1272;74274;-28
2023/12/23 13:31:20;;;;;;;3.50;1.00;;;;;;;0.09;70.04;96223.73;104738;1271;146439;-28
2023/12/23 13:33:48;;;;;;;3.20;1.00;;;;;;;0.05;70.45;96225.95;105166;1263;61179;-27
2023/12/23 13:36:17;;;;;;;1.70;1.00;;;;;;;-0.13;70.79;96213.45;105138;1266;61308;-27
2023/12/23 13:38:45;;;;;;;4.60;1.40;;;;;;;0.19;69.93;96231.25;105210;1270;72197;-27
2023/12/23 13:41:18;;;;;;;2.10;1.60;;;;;;;0.54;68.26;96218.58;104833;1272;73447;-28
2023/12/23 13:43:46;;;;;;;4.90;1.50;;;;;;;0.41;67.85;96228.77;104852;1263;71474;-28
2023/12/23 13:46:14;;;;;;;3.00;1.20;;;;;;;0.25;68.62;96223.43;105094;1270;61128;-27